createdAt,value
2017-10-22T00:01:04.952Z,95.67
2017-10-22T00:03:33.299Z,96.06
2017-10-22T00:06:01.696Z,96.23
2017-10-22T00:08:30.038Z,95.78
2017-10-22T00:10:58.378Z,95.66
2017-10-22T00:13:26.770Z,95.98
2017-10-22T00:15:55.106Z,95.53
2017-10-22T00:18:23.447Z,95.70
2017-10-22T00:20:51.789Z,95.87
2017-10-22T00:23:20.126Z,95.84
2017-10-22T00:25:48.499Z,96.52
2017-10-22T00:28:16.864Z,95.96
2017-10-22T00:30:45.187Z,95.82
2017-10-22T00:33:13.577Z,97.48
2017-10-22T00:35:42.713Z,97.40
2017-10-22T00:38:11.078Z,97.91
2017-10-22T00:40:39.424Z,97.73
2017-10-22T00:43:07.776Z,97.15
2017-10-22T00:45:36.099Z,96.69
2017-10-22T00:48:04.444Z,96.52
2017-10-22T00:50:32.807Z,95.41
2017-10-22T00:53:01.143Z,96.09
2017-10-22T00:55:29.475Z,96.21
2017-10-22T00:57:57.812Z,95.83
2017-10-22T01:00:26.162Z,95.97
2017-10-22T01:02:54.491Z,95.91
2017-10-22T01:05:22.825Z,95.67
2017-10-22T01:07:51.175Z,95.45
2017-10-22T01:10:19.517Z,95.31
2017-10-22T01:12:48.790Z,95.64
2017-10-22T01:15:17.133Z,95.27
2017-10-22T01:17:45.466Z,94.53
2017-10-22T01:20:13.808Z,92.18
2017-10-22T01:22:42.215Z,91.93
2017-10-22T01:25:10.582Z,91.80
2017-10-22T01:27:38.950Z,92.13
2017-10-22T01:30:07.294Z,92.25
2017-10-22T01:32:35.667Z,92.57
2017-10-22T01:35:04.037Z,92.32
2017-10-22T01:37:33.278Z,92.40
2017-10-22T01:40:01.680Z,93.01
2017-10-22T01:42:30.020Z,92.34
2017-10-22T01:44:58.367Z,91.60
2017-10-22T01:47:26.706Z,90.82
2017-10-22T01:49:55.071Z,90.83
2017-10-22T01:52:23.416Z,90.81
2017-10-22T01:54:51.773Z,92.26
2017-10-22T01:57:20.128Z,92.30
2017-10-22T01:59:48.457Z,92.27
2017-10-22T02:02:16.783Z,91.76
2017-10-22T02:04:45.126Z,91.30
2017-10-22T02:07:13.522Z,90.88
2017-10-22T02:09:41.854Z,91.46
2017-10-22T02:12:10.182Z,91.00
2017-10-22T02:14:38.577Z,91.61
2017-10-22T02:17:06.899Z,92.04
2017-10-22T02:19:35.304Z,92.00
2017-10-22T02:22:03.626Z,92.29
2017-10-22T02:24:32.004Z,92.53
2017-10-22T02:27:00.358Z,93.39
2017-10-22T02:29:28.703Z,93.36
2017-10-22T02:31:57.043Z,93.41
2017-10-22T02:34:25.744Z,92.84
2017-10-22T02:36:54.078Z,93.21
2017-10-22T02:39:22.431Z,93.33
2017-10-22T02:41:50.752Z,93.31
2017-10-22T02:44:19.108Z,92.32
2017-10-22T02:46:47.486Z,91.48
2017-10-22T02:49:15.863Z,91.81
2017-10-22T02:51:44.959Z,92.41
2017-10-22T02:54:13.299Z,92.81
2017-10-22T02:56:41.637Z,92.53
2017-10-22T02:59:10.407Z,92.10
2017-10-22T03:01:38.741Z,91.78
2017-10-22T03:04:07.115Z,91.79
2017-10-22T03:06:35.476Z,91.25
2017-10-22T03:09:03.819Z,91.25
2017-10-22T03:11:32.141Z,91.40
2017-10-22T03:14:00.484Z,91.30
2017-10-22T03:16:28.809Z,91.12
2017-10-22T03:18:57.175Z,91.00
2017-10-22T03:21:25.517Z,91.26
2017-10-22T03:23:53.863Z,90.60
2017-10-22T03:26:22.233Z,90.52
2017-10-22T03:28:50.553Z,91.74
2017-10-22T03:31:18.919Z,91.08
2017-10-22T03:33:47.258Z,91.34
2017-10-22T03:36:15.590Z,90.88
2017-10-22T03:38:43.927Z,90.60
2017-10-22T03:41:12.762Z,90.78
2017-10-22T03:43:41.099Z,88.87
2017-10-22T03:46:09.455Z,89.01
2017-10-22T03:48:37.783Z,89.54
2017-10-22T03:51:06.116Z,89.28
2017-10-22T03:53:34.492Z,89.53
2017-10-22T03:56:02.828Z,89.98
2017-10-22T03:58:31.157Z,90.13
2017-10-22T04:00:59.488Z,90.25
2017-10-22T04:03:27.838Z,90.44
2017-10-22T04:05:56.171Z,89.62
2017-10-22T04:08:24.500Z,89.33
2017-10-22T04:10:53.080Z,90.10
2017-10-22T04:13:21.424Z,90.25
2017-10-22T04:15:49.779Z,90.62
2017-10-22T04:18:18.115Z,90.53
2017-10-22T04:20:46.457Z,90.58
2017-10-22T04:23:14.796Z,91.19
2017-10-22T04:25:43.127Z,91.36
2017-10-22T04:28:11.465Z,90.57
2017-10-22T04:30:52.302Z,90.80
2017-10-22T04:33:20.698Z,91.24
2017-10-22T04:38:29.207Z,91.95
2017-10-22T04:40:57.549Z,91.46
2017-10-22T04:43:25.892Z,91.34
2017-10-22T04:45:54.235Z,91.62
2017-10-22T04:48:24.200Z,91.67
2017-10-22T04:50:52.551Z,92.17
2017-10-22T04:53:20.880Z,92.14
2017-10-22T04:55:49.214Z,91.92
2017-10-22T04:58:17.552Z,90.67
2017-10-22T05:00:45.906Z,90.97
2017-10-22T05:07:42.664Z,90.55
2017-10-22T05:10:11.004Z,90.48
2017-10-22T05:12:39.343Z,90.77
2017-10-22T05:15:07.719Z,91.18
2017-10-22T05:17:36.108Z,91.00
2017-10-22T05:20:04.474Z,91.09
2017-10-22T05:22:32.816Z,90.86
2017-10-22T05:25:01.201Z,90.75
2017-10-22T05:27:29.544Z,90.23
2017-10-22T05:29:57.940Z,89.75
2017-10-22T05:32:26.276Z,89.60
2017-10-22T05:34:54.615Z,89.25
2017-10-22T05:37:22.988Z,89.13
2017-10-22T05:39:51.321Z,88.92
2017-10-22T05:42:19.699Z,88.69
2017-10-22T05:44:49.070Z,89.20
2017-10-22T05:47:17.447Z,89.12
2017-10-22T05:49:45.819Z,89.55
2017-10-22T05:52:14.168Z,89.93
2017-10-22T05:54:42.515Z,90.37
2017-10-22T05:57:10.855Z,90.62
2017-10-22T05:59:39.191Z,90.66
2017-10-22T06:02:07.563Z,90.87
2017-10-22T06:04:35.899Z,91.41
2017-10-22T06:07:04.232Z,91.63
2017-10-22T06:09:32.576Z,91.46
2017-10-22T06:12:00.962Z,91.40
2017-10-22T06:14:29.331Z,91.61
2017-10-22T06:16:57.663Z,91.88
2017-10-22T06:19:26.005Z,92.83
2017-10-22T06:21:54.364Z,92.39
2017-10-22T06:24:22.703Z,93.72
2017-10-22T06:26:51.063Z,93.71
2017-10-22T06:29:19.431Z,94.41
2017-10-22T06:31:47.768Z,95.45
2017-10-22T06:34:16.106Z,95.60
2017-10-22T06:36:44.491Z,96.62
2017-10-22T06:39:12.951Z,96.83
2017-10-22T06:41:41.300Z,97.11
2017-10-22T06:44:09.629Z,97.74
2017-10-22T06:46:37.965Z,97.43
2017-10-22T06:49:06.552Z,97.24
2017-10-22T06:51:34.907Z,98.47
2017-10-22T06:54:03.256Z,98.95
2017-10-22T06:56:31.599Z,99.27
2017-10-22T06:58:59.955Z,100.00
2017-10-22T07:01:28.315Z,100.00
2017-10-22T07:03:56.658Z,100.00
2017-10-22T07:06:25.031Z,100.00
2017-10-22T07:08:53.376Z,100.00
2017-10-22T07:11:21.724Z,100.00
2017-10-22T07:13:50.088Z,100.00
2017-10-22T07:16:18.427Z,100.00
2017-10-22T07:18:46.811Z,100.00
2017-10-22T07:21:15.162Z,100.00
2017-10-22T07:23:43.504Z,100.00
2017-10-22T07:26:11.889Z,100.00
2017-10-22T07:28:40.243Z,100.00
2017-10-22T07:31:08.614Z,100.00
2017-10-22T07:33:36.949Z,100.00
2017-10-22T07:36:05.336Z,100.00
2017-10-22T07:38:33.668Z,100.00
2017-10-22T07:41:02.015Z,100.00
2017-10-22T07:43:30.366Z,100.00
2017-10-22T07:45:58.740Z,100.00
2017-10-22T07:48:27.085Z,100.00
2017-10-22T07:50:55.443Z,100.00
2017-10-22T07:53:23.812Z,100.00
2017-10-22T07:55:52.154Z,100.00
2017-10-22T07:58:20.542Z,100.00
2017-10-22T08:00:48.883Z,100.00
2017-10-22T08:03:17.232Z,100.00
2017-10-22T08:05:45.584Z,100.00
2017-10-22T08:08:13.925Z,100.00
2017-10-22T08:10:42.392Z,100.00
2017-10-22T08:13:10.740Z,100.00
2017-10-22T08:15:39.101Z,100.00
2017-10-22T08:18:07.463Z,100.00
2017-10-22T08:20:35.794Z,100.00
2017-10-22T08:23:04.171Z,100.00
2017-10-22T08:25:32.524Z,100.00
2017-10-22T08:28:01.082Z,100.00
2017-10-22T08:30:29.694Z,100.00
2017-10-22T08:32:58.094Z,100.00
2017-10-22T08:35:26.475Z,100.00
2017-10-22T08:37:54.832Z,100.00
2017-10-22T08:40:23.166Z,100.00
2017-10-22T08:42:51.508Z,100.00
2017-10-22T08:45:19.884Z,100.00
2017-10-22T08:47:48.268Z,100.00
2017-10-22T08:50:16.614Z,100.00
2017-10-22T08:52:44.957Z,100.00
2017-10-22T08:55:13.304Z,100.00
2017-10-22T08:57:41.653Z,100.00
2017-10-22T09:00:10.082Z,100.00
2017-10-22T09:02:38.421Z,100.00
2017-10-22T09:05:06.772Z,100.00
2017-10-22T09:07:35.111Z,100.00
2017-10-22T09:10:03.455Z,100.00
2017-10-22T09:12:31.833Z,100.00
2017-10-22T09:15:00.167Z,100.00
2017-10-22T09:17:28.547Z,100.00
2017-10-22T09:19:56.879Z,100.00
2017-10-22T09:22:25.279Z,100.00
2017-10-22T09:24:53.622Z,100.00
2017-10-22T09:27:21.973Z,100.00
2017-10-22T09:29:50.507Z,100.00
2017-10-22T09:32:18.852Z,100.00
2017-10-22T09:34:48.022Z,100.00
2017-10-22T09:37:16.369Z,100.00
2017-10-22T09:39:44.744Z,100.00
2017-10-22T09:42:13.102Z,99.56
2017-10-22T09:44:41.469Z,99.85
2017-10-22T09:47:09.806Z,100.00
2017-10-22T09:49:38.743Z,100.00
2017-10-22T09:52:07.117Z,100.00
2017-10-22T09:54:35.508Z,100.00
2017-10-22T09:57:03.889Z,100.00
2017-10-22T09:59:32.247Z,100.00
2017-10-22T10:02:00.584Z,100.00
2017-10-22T10:04:28.928Z,100.00
2017-10-22T10:06:57.307Z,99.93
2017-10-22T10:09:25.677Z,100.00
2017-10-22T10:11:54.057Z,100.00
2017-10-22T10:14:22.406Z,100.00
2017-10-22T10:16:50.752Z,100.00
2017-10-22T10:19:19.320Z,99.69
2017-10-22T10:21:47.677Z,98.45
2017-10-22T10:24:16.027Z,98.81
2017-10-22T10:26:44.375Z,98.02
2017-10-22T10:29:12.707Z,98.58
2017-10-22T10:31:41.157Z,96.95
2017-10-22T10:34:09.521Z,97.09
2017-10-22T10:36:37.862Z,97.63
2017-10-22T10:39:06.189Z,95.98
2017-10-22T10:41:34.531Z,96.22
2017-10-22T10:44:03.208Z,96.65
2017-10-22T10:46:31.545Z,94.34
2017-10-22T10:48:59.885Z,94.14
2017-10-22T10:51:28.224Z,94.77
2017-10-22T10:53:56.553Z,95.05
2017-10-22T10:56:24.950Z,94.31
2017-10-22T10:58:53.299Z,94.70
2017-10-22T11:01:21.645Z,94.25
2017-10-22T11:03:49.980Z,93.87
2017-10-22T11:06:18.321Z,94.38
2017-10-22T11:08:47.404Z,94.55
2017-10-22T11:11:15.777Z,95.59
2017-10-22T11:13:44.119Z,95.36
2017-10-22T11:16:12.444Z,96.25
2017-10-22T11:18:40.817Z,95.68
2017-10-22T11:21:09.179Z,96.20
2017-10-22T11:23:37.536Z,96.03
2017-10-22T11:26:05.877Z,96.08
2017-10-22T11:28:34.275Z,96.75
2017-10-22T11:31:02.619Z,98.62
2017-10-22T11:33:30.985Z,98.45
2017-10-22T11:35:59.319Z,98.27
2017-10-22T11:38:27.655Z,100.00
2017-10-22T11:40:56.029Z,100.00
2017-10-22T11:43:24.367Z,100.00
2017-10-22T11:45:52.803Z,100.00
2017-10-22T11:48:21.140Z,100.00
2017-10-22T11:50:49.488Z,99.56
2017-10-22T11:53:17.828Z,100.00
2017-10-22T11:55:46.181Z,98.62
2017-10-22T11:58:14.648Z,98.37
2017-10-22T12:00:43.808Z,97.76
2017-10-22T12:03:12.177Z,97.75
2017-10-22T12:05:40.516Z,99.22
2017-10-22T12:08:08.852Z,97.76
2017-10-22T12:10:37.226Z,96.77
2017-10-22T12:13:05.572Z,96.39
2017-10-22T12:15:33.907Z,95.44
2017-10-22T12:18:02.243Z,95.78
2017-10-22T12:20:30.571Z,97.44
2017-10-22T12:22:58.952Z,95.65
2017-10-22T12:25:27.353Z,97.03
2017-10-22T12:27:55.715Z,94.51
2017-10-22T12:30:24.112Z,95.40
2017-10-22T12:32:52.454Z,96.91
2017-10-22T12:35:20.823Z,97.38
2017-10-22T12:37:49.165Z,96.28
2017-10-22T12:40:17.491Z,97.47
2017-10-22T12:42:45.818Z,98.27
2017-10-22T12:45:14.157Z,99.18
2017-10-22T12:47:42.532Z,99.16
2017-10-22T12:50:10.871Z,100.00
2017-10-22T12:52:39.219Z,99.35
2017-10-22T12:55:07.554Z,100.00
2017-10-22T12:57:35.922Z,100.00
2017-10-22T13:00:04.306Z,100.00
2017-10-22T13:02:32.639Z,100.00
2017-10-22T13:05:00.988Z,100.00
2017-10-22T13:07:29.572Z,100.00
2017-10-22T13:09:57.916Z,100.00
2017-10-22T13:12:26.295Z,100.00
2017-10-22T13:14:54.666Z,100.00
2017-10-22T13:17:23.008Z,100.00
2017-10-22T13:19:51.407Z,100.00
2017-10-22T13:22:19.752Z,100.00
2017-10-22T13:24:48.126Z,100.00
2017-10-22T13:27:16.491Z,100.00
2017-10-22T13:29:44.837Z,100.00
2017-10-22T13:32:13.172Z,100.00
2017-10-22T13:34:41.517Z,100.00
2017-10-22T13:37:09.874Z,100.00
2017-10-22T13:39:38.211Z,100.00
2017-10-22T13:42:06.740Z,100.00
2017-10-22T13:44:35.072Z,100.00
2017-10-22T13:47:03.411Z,100.00
2017-10-22T13:49:31.764Z,100.00
2017-10-22T13:52:00.117Z,100.00
2017-10-22T13:54:28.496Z,100.00
2017-10-22T13:56:56.849Z,100.00
2017-10-22T13:59:25.202Z,100.00
2017-10-22T14:01:53.536Z,100.00
2017-10-22T14:04:21.892Z,100.00
2017-10-22T14:06:50.281Z,100.00
2017-10-22T14:09:18.647Z,100.00
2017-10-22T14:11:46.994Z,100.00
2017-10-22T14:14:15.662Z,100.00
2017-10-22T14:16:43.996Z,100.00
2017-10-22T14:19:12.375Z,100.00
2017-10-22T14:21:40.724Z,100.00
2017-10-22T14:24:09.068Z,100.00
2017-10-22T14:26:37.414Z,100.00
2017-10-22T14:29:05.756Z,100.00
2017-10-22T14:31:34.184Z,100.00
2017-10-22T14:34:02.545Z,100.00
2017-10-22T14:36:30.891Z,100.00
2017-10-22T14:38:59.240Z,100.00
2017-10-22T14:41:27.587Z,100.00
2017-10-22T14:43:55.999Z,100.00
2017-10-22T14:46:24.330Z,100.00
2017-10-22T14:48:52.722Z,100.00
2017-10-22T14:51:21.092Z,100.00
2017-10-22T14:53:49.456Z,100.00
2017-10-22T14:56:17.804Z,100.00
2017-10-22T14:58:46.154Z,100.00
2017-10-22T15:01:14.528Z,100.00
2017-10-22T15:03:42.871Z,100.00
2017-10-22T15:06:11.213Z,100.00
2017-10-22T15:08:39.554Z,100.00
2017-10-22T15:11:07.896Z,100.00
2017-10-22T15:13:36.336Z,100.00
2017-10-22T15:16:04.682Z,100.00
2017-10-22T15:18:33.047Z,100.00
2017-10-22T15:21:01.768Z,100.00
2017-10-22T15:23:30.113Z,100.00
2017-10-22T15:25:58.511Z,100.00
2017-10-22T15:28:26.858Z,100.00
2017-10-22T15:30:55.191Z,100.00
2017-10-22T15:33:23.563Z,100.00
2017-10-22T15:35:51.907Z,100.00
2017-10-22T15:38:20.310Z,100.00
2017-10-22T15:40:48.643Z,100.00
2017-10-22T15:43:16.977Z,100.00
2017-10-22T15:45:45.460Z,100.00
2017-10-22T15:48:13.805Z,100.00
2017-10-22T15:50:42.152Z,100.00
2017-10-22T15:53:10.505Z,100.00
2017-10-22T15:55:38.846Z,100.00
2017-10-22T15:58:07.456Z,100.00
2017-10-22T16:00:35.797Z,100.00
2017-10-22T16:03:04.152Z,100.00
2017-10-22T16:05:32.556Z,100.00
2017-10-22T16:08:00.912Z,100.00
2017-10-22T16:10:29.401Z,100.00
2017-10-22T16:12:57.747Z,100.00
2017-10-22T16:15:26.099Z,100.00
2017-10-22T16:17:54.455Z,100.00
2017-10-22T16:20:22.809Z,100.00
2017-10-22T16:22:51.192Z,100.00
2017-10-22T16:25:19.575Z,100.00
2017-10-22T16:27:47.924Z,100.00
2017-10-22T16:30:16.268Z,100.00
2017-10-22T16:32:44.655Z,100.00
2017-10-22T16:35:13.039Z,100.00
2017-10-22T16:37:41.384Z,100.00
2017-10-22T16:40:09.752Z,100.00
2017-10-22T16:42:38.096Z,100.00
2017-10-22T16:45:06.440Z,100.00
2017-10-22T16:47:34.823Z,100.00
2017-10-22T16:50:03.172Z,100.00
2017-10-22T16:52:31.530Z,100.00
2017-10-22T16:54:59.950Z,100.00
2017-10-22T16:57:28.457Z,100.00
2017-10-22T16:59:56.906Z,100.00
2017-10-22T17:02:25.251Z,100.00
2017-10-22T17:04:53.616Z,100.00
2017-10-22T17:07:21.999Z,100.00
2017-10-22T17:09:50.351Z,100.00
2017-10-22T17:12:18.734Z,100.00
2017-10-22T17:14:47.109Z,100.00
2017-10-22T17:17:15.600Z,100.00
2017-10-22T17:19:43.976Z,100.00
2017-10-22T17:22:12.388Z,100.00
2017-10-22T17:24:40.767Z,100.00
2017-10-22T17:27:09.140Z,100.00
2017-10-22T17:29:37.490Z,100.00
2017-10-22T17:32:05.848Z,100.00
2017-10-22T17:34:34.211Z,100.00
2017-10-22T17:37:02.635Z,100.00
2017-10-22T17:39:31.017Z,100.00
2017-10-22T17:41:59.401Z,100.00
2017-10-22T17:44:27.770Z,100.00
2017-10-22T17:46:56.895Z,100.00
2017-10-22T17:49:25.323Z,100.00
2017-10-22T17:51:53.689Z,100.00
2017-10-22T17:54:22.068Z,100.00
2017-10-22T17:56:50.420Z,100.00
2017-10-22T17:59:18.770Z,100.00
2017-10-22T18:01:47.159Z,100.00
2017-10-22T18:04:15.523Z,100.00
2017-10-22T18:06:43.918Z,100.00
2017-10-22T18:09:12.268Z,100.00
2017-10-22T18:11:40.620Z,100.00
2017-10-22T18:14:08.964Z,100.00
2017-10-22T18:16:37.312Z,100.00
2017-10-22T18:19:05.700Z,100.00
2017-10-22T18:21:34.060Z,100.00
2017-10-22T18:24:02.718Z,100.00
2017-10-22T18:26:31.072Z,100.00
2017-10-22T18:28:59.466Z,100.00
2017-10-22T18:31:27.898Z,100.00
2017-10-22T18:33:56.239Z,100.00
2017-10-22T18:36:24.595Z,100.00
2017-10-22T18:38:52.974Z,100.00
2017-10-22T18:41:21.313Z,100.00
2017-10-22T18:43:49.701Z,100.00
2017-10-22T18:46:18.040Z,100.00
2017-10-22T18:48:46.388Z,100.00
2017-10-22T18:51:14.799Z,100.00
2017-10-22T18:53:43.156Z,100.00
2017-10-22T18:56:11.502Z,100.00
2017-10-22T18:58:39.846Z,100.00
2017-10-22T19:01:08.201Z,100.00
2017-10-22T19:03:36.581Z,100.00
2017-10-22T19:06:04.929Z,100.00
2017-10-22T19:08:33.285Z,100.00
2017-10-22T19:11:01.634Z,100.00
2017-10-22T19:13:29.981Z,100.00
2017-10-22T19:15:58.355Z,100.00
2017-10-22T19:18:26.801Z,100.00
2017-10-22T19:20:55.153Z,100.00
2017-10-22T19:23:23.519Z,100.00
2017-10-22T19:25:51.870Z,100.00
2017-10-22T19:28:20.639Z,100.00
2017-10-22T19:30:49.003Z,100.00
2017-10-22T19:33:17.353Z,100.00
2017-10-22T19:35:45.714Z,100.00
2017-10-22T19:38:14.471Z,100.00
2017-10-22T19:40:42.948Z,100.00
2017-10-22T19:43:11.287Z,100.00
2017-10-22T19:45:39.648Z,100.00
2017-10-22T19:48:08.001Z,100.00
2017-10-22T19:50:36.353Z,100.00
2017-10-22T19:53:04.759Z,100.00
2017-10-22T19:55:33.165Z,100.00
2017-10-22T19:58:01.819Z,100.00
2017-10-22T20:00:30.176Z,100.00
2017-10-22T20:02:58.541Z,100.00
2017-10-22T20:05:26.935Z,100.00
2017-10-22T20:07:55.300Z,100.00
2017-10-22T20:10:23.644Z,100.00
2017-10-22T20:12:52.315Z,100.00
2017-10-22T20:15:20.700Z,100.00
2017-10-22T20:17:49.090Z,100.00
2017-10-22T20:20:17.487Z,100.00
2017-10-22T20:22:45.898Z,100.00
2017-10-22T20:25:14.247Z,100.00
2017-10-22T20:27:42.595Z,100.00
2017-10-22T20:30:10.987Z,100.00
2017-10-22T20:32:39.344Z,100.00
2017-10-22T20:35:07.700Z,100.00
2017-10-22T20:37:36.054Z,100.00
2017-10-22T20:40:04.395Z,100.00
2017-10-22T20:42:33.118Z,100.00
2017-10-22T20:45:01.813Z,100.00
2017-10-22T20:47:30.168Z,100.00
2017-10-22T20:49:58.515Z,100.00
2017-10-22T20:52:27.788Z,100.00
2017-10-22T20:54:56.168Z,100.00
2017-10-22T20:57:24.525Z,100.00
2017-10-22T20:59:52.904Z,100.00
2017-10-22T21:02:21.257Z,100.00
2017-10-22T21:04:49.613Z,100.00
2017-10-22T21:07:17.992Z,100.00
2017-10-22T21:09:46.463Z,100.00
2017-10-22T21:12:14.880Z,100.00
2017-10-22T21:14:43.224Z,100.00
2017-10-22T21:17:11.578Z,100.00
2017-10-22T21:19:39.953Z,100.00
2017-10-22T21:22:08.334Z,100.00
2017-10-22T21:24:36.675Z,100.00
2017-10-22T21:27:05.058Z,100.00
2017-10-22T21:29:33.402Z,100.00
2017-10-22T21:32:01.776Z,100.00
2017-10-22T21:34:30.124Z,100.00
2017-10-22T21:36:58.516Z,100.00
2017-10-22T21:39:26.864Z,100.00
2017-10-22T21:41:55.237Z,100.00
2017-10-22T21:44:23.607Z,100.00
2017-10-22T21:46:51.952Z,100.00
2017-10-22T21:49:20.416Z,100.00
2017-10-22T21:51:48.786Z,100.00
2017-10-22T21:54:17.168Z,100.00
2017-10-22T21:56:45.521Z,100.00
2017-10-22T21:59:15.707Z,100.00
2017-10-22T22:01:44.102Z,100.00
2017-10-22T22:04:12.593Z,100.00
2017-10-22T22:06:40.968Z,100.00
2017-10-22T22:09:09.307Z,100.00
2017-10-22T22:11:37.653Z,100.00
2017-10-22T22:14:06.001Z,100.00
2017-10-22T22:16:34.381Z,100.00
2017-10-22T22:19:02.734Z,100.00
2017-10-22T22:21:31.120Z,100.00
2017-10-22T22:23:59.468Z,100.00
2017-10-22T22:26:27.816Z,100.00
2017-10-22T22:28:56.186Z,100.00
2017-10-22T22:31:24.528Z,100.00
2017-10-22T22:33:52.887Z,100.00
2017-10-22T22:36:21.227Z,100.00
2017-10-22T22:38:49.993Z,100.00
2017-10-22T22:41:18.990Z,100.00
2017-10-22T22:43:47.485Z,100.00
2017-10-22T22:46:16.355Z,100.00
2017-10-22T22:48:45.068Z,100.00
2017-10-22T22:51:14.048Z,100.00
2017-10-22T22:53:42.779Z,100.00
2017-10-22T22:56:11.612Z,100.00
2017-10-22T22:58:40.349Z,100.00
2017-10-22T23:01:09.110Z,100.00
2017-10-22T23:03:37.861Z,100.00
2017-10-22T23:06:07.858Z,100.00
2017-10-22T23:08:37.599Z,100.00
2017-10-22T23:11:06.390Z,100.00
2017-10-22T23:13:36.858Z,100.00
2017-10-22T23:16:06.458Z,100.00
2017-10-22T23:18:35.197Z,100.00
2017-10-22T23:21:04.986Z,100.00
2017-10-22T23:23:33.800Z,100.00
2017-10-22T23:26:03.091Z,100.00
2017-10-22T23:28:31.963Z,100.00
2017-10-22T23:31:01.091Z,100.00
2017-10-22T23:33:30.423Z,100.00
2017-10-22T23:35:59.259Z,100.00
2017-10-22T23:38:28.878Z,100.00
2017-10-22T23:40:57.623Z,100.00
2017-10-22T23:43:26.426Z,100.00
2017-10-22T23:45:55.238Z,100.00
2017-10-22T23:48:25.076Z,100.00
2017-10-22T23:50:54.176Z,100.00
2017-10-22T23:53:22.959Z,100.00
2017-10-22T23:55:52.176Z,100.00
2017-10-22T23:58:21.737Z,100.00
